createdAt,value
2018-04-15T00:01:27.252Z,7.9
2018-04-15T00:11:24.902Z,8.0
2018-04-15T00:21:29.312Z,7.3
2018-04-15T00:31:33.142Z,7.3
2018-04-15T00:41:31.637Z,7.4
2018-04-15T00:51:26.350Z,7.2
2018-04-15T01:01:31.950Z,7.7
2018-04-15T01:11:28.577Z,6.8
2018-04-15T01:21:26.987Z,7.1
2018-04-15T01:31:33.237Z,6.2
2018-04-15T01:41:31.727Z,6.7
2018-04-15T01:51:27.872Z,7.3
2018-04-15T02:01:33.146Z,6.9
2018-04-15T02:11:33.806Z,7.3
2018-04-15T02:21:31.824Z,7.3
2018-04-15T02:31:32.439Z,7.4
2018-04-15T02:41:33.154Z,7.3
2018-04-15T02:51:26.874Z,7.0
2018-04-15T03:01:31.019Z,7.7
2018-04-15T03:11:26.624Z,7.8
2018-04-15T03:21:33.768Z,7.4
2018-04-15T03:31:28.917Z,7.8
2018-04-15T03:41:32.271Z,7.8
2018-04-15T03:51:31.707Z,7.2
2018-04-15T04:01:32.917Z,8.5
2018-04-15T04:11:32.714Z,7.9
2018-04-15T04:21:31.422Z,8.6
2018-04-15T04:31:32.201Z,9.5
2018-04-15T04:41:31.543Z,9.5
2018-04-15T04:51:31.929Z,10.4
2018-04-15T05:01:26.668Z,12.6
2018-04-15T05:11:27.665Z,11.3
2018-04-15T05:21:26.610Z,11.7
2018-04-15T05:31:27.854Z,13.0
2018-04-15T05:41:26.415Z,11.3
2018-04-15T05:51:28.586Z,11.3
2018-04-15T06:01:26.264Z,11.2
2018-04-15T06:11:31.648Z,13.9
2018-04-15T06:21:26.472Z,14.8
2018-04-15T06:31:26.443Z,15.6
2018-04-15T06:41:31.768Z,17.6
2018-04-15T06:51:27.629Z,15.6
2018-04-15T07:01:31.808Z,19.4
2018-04-15T07:11:26.318Z,19.9
2018-04-15T07:21:26.356Z,17.0
2018-04-15T07:31:25.568Z,21.2
2018-04-15T07:41:27.467Z,13.3
2018-04-15T07:51:26.085Z,12.7
2018-04-15T08:01:25.854Z,11.8
2018-04-15T08:11:26.582Z,9.4
2018-04-15T08:21:27.942Z,9.2
2018-04-15T08:31:27.143Z,6.1
2018-04-15T08:41:31.478Z,5.5
2018-04-15T08:51:31.972Z,5.6
2018-04-15T09:01:33.315Z,6.2
2018-04-15T09:11:30.845Z,5.1
2018-04-15T09:21:31.442Z,4.2
2018-04-15T09:31:31.772Z,4.1
2018-04-15T09:41:26.794Z,3.6
2018-04-15T09:51:32.094Z,3.9
2018-04-15T10:01:26.104Z,4.2
2018-04-15T10:11:26.035Z,3.7
2018-04-15T10:21:28.470Z,3.5
2018-04-15T10:31:25.519Z,3.3
2018-04-15T10:41:25.802Z,2.7
2018-04-15T10:51:27.027Z,3.4
2018-04-15T11:01:25.956Z,3.3
2018-04-15T11:11:25.792Z,6.1
2018-04-15T11:21:26.376Z,3.6
2018-04-15T11:31:25.725Z,3.2
2018-04-15T11:41:28.185Z,2.9
2018-04-15T11:51:25.482Z,2.9
2018-04-15T12:01:26.063Z,2.6
2018-04-15T12:11:26.061Z,2.5
2018-04-15T12:21:26.324Z,2.7
2018-04-15T12:31:25.941Z,2.8
2018-04-15T12:41:27.642Z,3.0
2018-04-15T12:51:25.728Z,2.7
2018-04-15T13:01:25.538Z,3.0
2018-04-15T13:11:26.000Z,2.6
2018-04-15T13:21:24.938Z,3.2
2018-04-15T13:31:26.242Z,3.3
2018-04-15T13:41:25.003Z,3.1
2018-04-15T13:51:28.062Z,3.0
2018-04-15T14:01:25.486Z,3.0
2018-04-15T14:11:26.253Z,2.5
2018-04-15T14:21:25.540Z,2.7
2018-04-15T14:31:25.596Z,3.1
2018-04-15T14:41:25.457Z,2.8
2018-04-15T14:51:25.555Z,3.6
2018-04-15T15:01:25.402Z,3.5
2018-04-15T15:11:25.907Z,3.3
2018-04-15T15:21:25.004Z,3.1
2018-04-15T15:31:26.067Z,3.5
2018-04-15T15:41:27.379Z,2.8
2018-04-15T15:51:25.143Z,2.9
2018-04-15T16:01:25.048Z,3.2
2018-04-15T16:11:25.863Z,3.4
2018-04-15T16:21:26.253Z,3.5
2018-04-15T16:31:25.755Z,3.7
2018-04-15T16:41:25.568Z,4.9
2018-04-15T16:51:26.273Z,6.9
2018-04-15T17:01:26.301Z,13.4
2018-04-15T17:11:25.435Z,7.2
2018-04-15T17:21:26.861Z,8.8
2018-04-15T17:31:26.102Z,4.8
2018-04-15T17:41:25.890Z,4.6
2018-04-15T17:51:26.103Z,4.5
2018-04-15T18:01:26.361Z,5.7
2018-04-15T18:11:28.014Z,7.3
2018-04-15T18:21:26.372Z,7.4
2018-04-15T18:31:26.072Z,9.9
2018-04-15T18:41:28.885Z,14.8
2018-04-15T18:51:25.127Z,15.6
2018-04-15T19:01:26.830Z,13.4
2018-04-15T19:11:27.460Z,9.9
2018-04-15T19:21:25.736Z,9.2
2018-04-15T19:31:25.636Z,8.5
2018-04-15T19:41:27.128Z,6.6
2018-04-15T19:51:25.265Z,5.3
2018-04-15T20:01:25.428Z,5.7
2018-04-15T20:11:26.108Z,6.9
2018-04-15T20:21:26.148Z,6.1
2018-04-15T20:31:25.023Z,7.2
2018-04-15T20:41:26.279Z,7.9
2018-04-15T20:51:28.507Z,8.4
2018-04-15T21:01:28.673Z,7.5
2018-04-15T21:11:25.499Z,7.9
2018-04-15T21:21:26.764Z,8.3
2018-04-15T21:31:29.507Z,7.7
2018-04-15T21:41:26.278Z,8.6
2018-04-15T21:51:29.273Z,7.1
2018-04-15T22:01:28.510Z,7.6
2018-04-15T22:11:27.388Z,7.6
2018-04-15T22:21:26.426Z,7.6
2018-04-15T22:31:25.386Z,6.7
2018-04-15T22:41:26.631Z,6.8
2018-04-15T22:51:25.860Z,7.5
2018-04-15T23:01:26.851Z,6.5
2018-04-15T23:11:29.072Z,6.8
2018-04-15T23:21:26.961Z,6.3
2018-04-15T23:31:26.517Z,7.3
2018-04-15T23:41:26.518Z,7.2
2018-04-15T23:51:27.687Z,6.6
